createdAt,value
2023-04-30T00:01:28.754Z,100551.14
2023-04-30T00:03:56.293Z,100548.37
2023-04-30T00:06:23.350Z,100545.59
2023-04-30T00:08:50.381Z,100540.94
2023-04-30T00:11:17.352Z,100533.75
2023-04-30T00:13:44.447Z,100537.47
2023-04-30T00:16:11.433Z,100537.62
2023-04-30T00:18:39.015Z,100536.30
2023-04-30T00:21:06.043Z,100534.05
2023-04-30T00:23:33.042Z,100535.97
2023-04-30T00:26:00.088Z,100533.52
2023-04-30T00:28:27.172Z,100535.17
2023-04-30T00:30:54.154Z,100528.81
2023-04-30T00:33:21.319Z,100526.05
2023-04-30T00:35:48.508Z,100521.27
2023-04-30T00:38:15.548Z,100519.23
2023-04-30T00:40:43.310Z,100514.27
2023-04-30T00:43:10.288Z,100508.83
2023-04-30T00:45:37.275Z,100506.80
2023-04-30T00:48:04.429Z,100499.86
2023-04-30T00:50:31.436Z,100501.61
2023-04-30T00:52:59.694Z,100497.47
2023-04-30T00:55:27.055Z,100498.34
2023-04-30T00:57:54.451Z,100499.02
2023-04-30T01:00:22.118Z,100497.23
2023-04-30T01:02:49.950Z,100498.91
2023-04-30T01:05:17.120Z,100495.34
2023-04-30T01:07:46.497Z,100498.06
2023-04-30T01:10:14.286Z,100495.02
2023-04-30T01:12:44.324Z,100491.42
2023-04-30T01:15:36.427Z,100491.65
2023-04-30T01:18:09.274Z,100491.41
2023-04-30T01:20:37.049Z,100489.41
2023-04-30T01:23:27.221Z,100489.84
2023-04-30T01:26:07.017Z,100489.05
2023-04-30T01:28:35.901Z,100486.17
2023-04-30T01:31:02.983Z,100486.16
2023-04-30T01:33:29.910Z,100483.89
2023-04-30T01:36:21.937Z,100478.44
2023-04-30T01:39:04.187Z,100475.88
2023-04-30T01:42:01.794Z,100475.45
2023-04-30T01:44:37.955Z,100471.13
2023-04-30T01:47:06.612Z,100469.64
2023-04-30T01:50:12.363Z,100466.62
2023-04-30T01:52:46.458Z,100470.34
2023-04-30T01:55:27.784Z,100468.82
2023-04-30T01:57:59.810Z,100467.33
2023-04-30T02:00:27.807Z,100458.19
2023-04-30T02:02:55.940Z,100455.29
2023-04-30T02:05:23.147Z,100456.73
2023-04-30T02:07:51.108Z,100457.37
2023-04-30T02:10:20.657Z,100456.42
2023-04-30T02:12:48.868Z,100453.35
2023-04-30T02:15:16.197Z,100452.23
2023-04-30T02:17:43.239Z,100450.63
2023-04-30T02:20:10.843Z,100456.76
2023-04-30T02:22:38.950Z,100453.39
2023-04-30T02:25:06.313Z,100450.34
2023-04-30T02:27:33.405Z,100454.04
2023-04-30T02:30:00.596Z,100452.67
2023-04-30T02:32:27.715Z,100450.77
2023-04-30T02:34:54.767Z,100447.80
2023-04-30T02:37:21.912Z,100447.63
2023-04-30T02:39:49.109Z,100444.17
2023-04-30T02:42:16.660Z,100447.13
2023-04-30T02:44:43.819Z,100447.13
2023-04-30T02:47:11.150Z,100446.48
2023-04-30T02:49:38.271Z,100441.98
2023-04-30T02:52:05.403Z,100443.41
2023-04-30T02:54:32.421Z,100442.91
2023-04-30T02:56:59.462Z,100442.05
2023-04-30T02:59:27.377Z,100442.09
2023-04-30T03:01:54.463Z,100436.38
2023-04-30T03:04:21.462Z,100430.33
2023-04-30T03:06:48.461Z,100429.33
2023-04-30T03:09:15.573Z,100430.63
2023-04-30T03:11:42.540Z,100431.08
2023-04-30T03:14:09.489Z,100436.00
2023-04-30T03:16:36.870Z,100438.16
2023-04-30T03:19:03.968Z,100441.31
2023-04-30T03:21:31.161Z,100436.14
2023-04-30T03:23:58.139Z,100435.59
2023-04-30T03:26:25.204Z,100436.91
2023-04-30T03:28:55.229Z,100434.25
2023-04-30T03:31:22.230Z,100428.05
2023-04-30T03:33:49.462Z,100428.97
2023-04-30T03:36:16.611Z,100430.58
2023-04-30T03:38:43.593Z,100424.36
2023-04-30T03:41:11.099Z,100422.64
2023-04-30T03:43:38.249Z,100424.41
2023-04-30T03:46:05.547Z,100426.66
2023-04-30T03:48:32.599Z,100429.63
2023-04-30T03:50:59.562Z,100432.09
2023-04-30T03:53:26.909Z,100433.55
2023-04-30T03:55:54.062Z,100435.52
2023-04-30T03:58:21.564Z,100437.66
2023-04-30T04:00:48.707Z,100438.75
2023-04-30T04:03:16.246Z,100435.83
2023-04-30T04:05:43.305Z,100431.16
2023-04-30T04:08:10.481Z,100427.73
2023-04-30T04:10:39.266Z,100429.32
2023-04-30T04:13:09.424Z,100434.76
2023-04-30T04:15:36.607Z,100435.66
2023-04-30T04:18:03.951Z,100436.02
2023-04-30T04:20:32.501Z,100426.34
2023-04-30T04:22:59.613Z,100425.67
2023-04-30T04:25:27.684Z,100424.33
2023-04-30T04:27:54.754Z,100423.61
2023-04-30T04:30:21.886Z,100422.93
2023-04-30T04:32:54.145Z,100425.77
2023-04-30T04:35:21.471Z,100423.66
2023-04-30T04:37:48.590Z,100422.94
2023-04-30T04:40:15.692Z,100423.30
2023-04-30T04:42:42.776Z,100423.11
2023-04-30T04:45:10.117Z,100421.54
2023-04-30T04:47:37.970Z,100424.99
2023-04-30T04:50:05.332Z,100424.45
2023-04-30T04:52:32.323Z,100422.17
2023-04-30T04:54:59.239Z,100418.16
2023-04-30T04:57:26.489Z,100417.45
2023-04-30T04:59:53.920Z,100418.14
2023-04-30T05:02:23.570Z,100416.19
2023-04-30T05:04:51.318Z,100414.05
2023-04-30T05:07:19.087Z,100413.31
2023-04-30T05:09:49.373Z,100408.95
2023-04-30T05:12:16.384Z,100406.95
2023-04-30T05:14:44.079Z,100410.55
2023-04-30T05:17:11.228Z,100405.45
2023-04-30T05:19:38.197Z,100409.06
2023-04-30T05:22:05.478Z,100413.15
2023-04-30T05:24:32.544Z,100411.19
2023-04-30T05:26:59.617Z,100409.23
2023-04-30T05:29:26.800Z,100405.52
2023-04-30T05:31:54.802Z,100401.98
2023-04-30T05:34:21.911Z,100400.48
2023-04-30T05:36:50.190Z,100397.95
2023-04-30T05:39:17.209Z,100394.42
2023-04-30T05:41:44.350Z,100388.80
2023-04-30T05:44:11.325Z,100386.16
2023-04-30T05:46:38.285Z,100390.69
2023-04-30T05:49:05.856Z,100388.06
2023-04-30T05:51:32.951Z,100386.96
2023-04-30T05:54:00.520Z,100387.98
2023-04-30T05:56:27.687Z,100388.43
2023-04-30T05:58:54.708Z,100383.02
2023-04-30T06:01:23.378Z,100380.22
2023-04-30T06:03:50.563Z,100378.45
2023-04-30T06:06:17.587Z,100377.59
2023-04-30T06:08:45.618Z,100374.96
2023-04-30T06:11:13.250Z,100372.14
2023-04-30T06:13:40.582Z,100369.63
2023-04-30T06:16:08.520Z,100364.95
2023-04-30T06:18:35.855Z,100360.15
2023-04-30T06:21:02.805Z,100360.86
2023-04-30T06:23:29.988Z,100361.67
2023-04-30T06:25:57.095Z,100356.95
2023-04-30T06:28:24.045Z,100357.11
2023-04-30T06:30:52.032Z,100355.85
2023-04-30T06:33:19.167Z,100351.98
2023-04-30T06:35:46.615Z,100353.52
2023-04-30T06:38:14.287Z,100349.43
2023-04-30T06:40:41.291Z,100348.33
2023-04-30T06:43:08.350Z,100346.00
2023-04-30T06:45:35.748Z,100341.95
2023-04-30T06:48:02.879Z,100339.88
2023-04-30T06:50:29.993Z,100334.98
2023-04-30T06:52:56.997Z,100339.15
2023-04-30T06:55:24.498Z,100335.98
2023-04-30T06:57:51.457Z,100333.02
2023-04-30T07:00:18.748Z,100328.00
2023-04-30T07:02:47.997Z,100326.61
2023-04-30T07:05:16.672Z,100323.75
2023-04-30T07:07:43.849Z,100325.45
2023-04-30T07:10:11.003Z,100321.89
2023-04-30T07:12:38.006Z,100314.13
2023-04-30T07:15:05.367Z,100306.76
2023-04-30T07:17:32.494Z,100304.02
2023-04-30T07:19:59.665Z,100308.17
2023-04-30T07:22:27.956Z,100305.21
2023-04-30T07:24:55.506Z,100299.08
2023-04-30T07:27:22.423Z,100296.94
2023-04-30T07:29:49.384Z,100296.95
2023-04-30T07:32:16.554Z,100297.59
2023-04-30T07:34:43.571Z,100297.45
2023-04-30T07:37:10.643Z,100295.12
2023-04-30T07:39:37.694Z,100294.31
2023-04-30T07:42:04.885Z,100292.29
2023-04-30T07:44:31.877Z,100292.52
2023-04-30T07:46:58.857Z,100291.05
2023-04-30T07:49:26.069Z,100284.45
2023-04-30T07:51:53.082Z,100288.03
2023-04-30T07:54:20.144Z,100283.27
2023-04-30T07:56:49.013Z,100279.45
2023-04-30T07:59:16.181Z,100280.71
2023-04-30T08:01:43.206Z,100278.15
2023-04-30T08:04:10.748Z,100273.02
2023-04-30T08:06:39.550Z,100269.54
2023-04-30T08:09:06.568Z,100268.38
2023-04-30T08:11:33.708Z,100266.31
2023-04-30T08:14:00.849Z,100266.88
2023-04-30T08:16:27.830Z,100267.30
2023-04-30T08:18:54.880Z,100263.27
2023-04-30T08:21:21.868Z,100262.84
2023-04-30T08:23:50.171Z,100258.51
2023-04-30T08:26:18.159Z,100262.33
2023-04-30T08:28:45.152Z,100253.33
2023-04-30T08:31:12.865Z,100254.05
2023-04-30T08:33:41.268Z,100248.86
2023-04-30T08:36:08.249Z,100249.70
2023-04-30T08:38:35.206Z,100250.44
2023-04-30T08:41:13.836Z,100251.14
2023-04-30T08:43:41.684Z,100247.88
2023-04-30T08:46:08.813Z,100242.20
2023-04-30T08:48:35.871Z,100243.93
2023-04-30T08:51:03.573Z,100248.36
2023-04-30T08:53:31.582Z,100248.42
2023-04-30T08:55:58.654Z,100247.42
2023-04-30T08:58:25.840Z,100248.41
2023-04-30T09:00:53.013Z,100250.84
2023-04-30T09:03:22.352Z,100248.39
2023-04-30T09:05:49.443Z,100245.90
2023-04-30T09:08:20.420Z,100252.81
2023-04-30T09:10:47.423Z,100248.27
2023-04-30T09:13:14.474Z,100253.08
2023-04-30T09:15:42.277Z,100250.67
2023-04-30T09:18:14.594Z,100248.16
2023-04-30T09:20:58.480Z,100248.16
2023-04-30T09:23:25.818Z,100242.38
2023-04-30T09:25:52.908Z,100247.73
2023-04-30T09:28:23.859Z,100240.52
2023-04-30T09:30:51.166Z,100237.56
2023-04-30T09:33:18.366Z,100236.81
2023-04-30T09:35:46.689Z,100234.85
2023-04-30T09:38:32.703Z,100235.86
2023-04-30T09:41:01.646Z,100233.98
2023-04-30T09:43:29.759Z,100232.35
2023-04-30T09:45:58.642Z,100222.95
2023-04-30T09:48:29.504Z,100221.33
2023-04-30T09:50:56.953Z,100221.10
2023-04-30T09:53:24.406Z,100216.86
2023-04-30T09:55:51.722Z,100217.94
2023-04-30T09:58:19.170Z,100219.23
2023-04-30T10:00:48.457Z,100220.12
2023-04-30T10:03:16.259Z,100213.20
2023-04-30T10:05:48.682Z,100213.08
2023-04-30T10:08:28.859Z,100209.69
2023-04-30T10:11:01.375Z,100208.17
2023-04-30T10:13:31.492Z,100211.91
2023-04-30T10:16:04.811Z,100207.71
2023-04-30T10:18:37.499Z,100208.49
2023-04-30T10:21:10.451Z,100202.73
2023-04-30T10:23:43.930Z,100204.80
2023-04-30T10:26:12.596Z,100203.94
2023-04-30T10:28:40.841Z,100202.25
2023-04-30T10:31:10.877Z,100199.67
2023-04-30T10:33:54.519Z,100203.66
2023-04-30T10:36:31.944Z,100199.34
2023-04-30T10:38:58.909Z,100193.83
2023-04-30T10:41:27.469Z,100195.14
2023-04-30T10:44:02.104Z,100191.61
2023-04-30T10:46:29.432Z,100189.94
2023-04-30T10:48:57.276Z,100186.15
2023-04-30T10:51:24.263Z,100187.28
2023-04-30T10:53:53.028Z,100183.64
2023-04-30T10:56:39.441Z,100179.73
2023-04-30T10:59:08.355Z,100178.27
2023-04-30T11:01:55.279Z,100178.17
2023-04-30T11:04:22.474Z,100176.42
2023-04-30T11:06:52.702Z,100176.55
2023-04-30T11:09:20.487Z,100178.86
2023-04-30T11:11:50.525Z,100175.58
2023-04-30T11:14:20.854Z,100178.54
2023-04-30T11:16:53.098Z,100177.34
2023-04-30T11:19:20.021Z,100178.05
2023-04-30T11:22:05.575Z,100184.66
2023-04-30T11:24:54.626Z,100180.55
2023-04-30T11:27:23.084Z,100181.80
2023-04-30T11:29:51.565Z,100175.51
2023-04-30T11:32:47.997Z,100173.77
2023-04-30T11:35:18.423Z,100177.92
2023-04-30T11:37:45.765Z,100178.00
2023-04-30T11:40:13.633Z,100177.86
2023-04-30T11:42:46.196Z,100176.55
2023-04-30T11:45:14.053Z,100169.06
2023-04-30T11:47:47.989Z,100171.95
2023-04-30T11:50:19.608Z,100180.17
2023-04-30T11:52:50.700Z,100167.55
2023-04-30T11:55:19.972Z,100165.79
2023-04-30T11:57:49.387Z,100165.85
2023-04-30T12:00:21.346Z,100163.60
2023-04-30T12:02:49.960Z,100164.77
2023-04-30T12:05:28.081Z,100161.05
2023-04-30T12:08:06.495Z,100163.68
2023-04-30T12:10:33.603Z,100161.10
2023-04-30T12:13:00.681Z,100153.67
2023-04-30T12:15:29.071Z,100145.90
2023-04-30T12:17:57.110Z,100140.91
2023-04-30T12:20:28.300Z,100142.21
2023-04-30T12:22:55.470Z,100144.34
2023-04-30T12:25:22.890Z,100140.80
2023-04-30T12:27:52.041Z,100141.67
2023-04-30T12:30:27.010Z,100137.49
2023-04-30T12:32:56.646Z,100142.44
2023-04-30T12:35:24.530Z,100143.42
2023-04-30T12:37:53.902Z,100146.47
2023-04-30T12:40:21.833Z,100143.77
2023-04-30T12:42:49.171Z,100137.90
2023-04-30T12:45:52.208Z,100133.65
2023-04-30T12:48:21.639Z,100136.73
2023-04-30T12:50:49.424Z,100134.70
2023-04-30T12:53:16.485Z,100137.93
2023-04-30T12:55:43.473Z,100137.08
2023-04-30T12:58:11.685Z,100144.33
2023-04-30T13:00:51.573Z,100138.39
2023-04-30T13:03:20.193Z,100145.16
2023-04-30T13:05:49.632Z,100143.13
2023-04-30T13:08:17.028Z,100140.77
2023-04-30T13:10:47.162Z,100142.65
2023-04-30T13:13:15.619Z,100139.89
2023-04-30T13:15:43.279Z,100137.31
2023-04-30T13:18:10.721Z,100141.54
2023-04-30T13:20:38.301Z,100141.93
2023-04-30T13:23:08.305Z,100135.82
2023-04-30T13:25:35.525Z,100139.88
2023-04-30T13:28:02.790Z,100139.30
2023-04-30T13:30:30.780Z,100136.40
2023-04-30T13:32:58.950Z,100133.61
2023-04-30T13:35:26.029Z,100138.65
2023-04-30T13:37:54.466Z,100131.08
2023-04-30T13:40:21.543Z,100133.31
2023-04-30T13:42:49.221Z,100127.70
2023-04-30T13:45:16.490Z,100128.88
2023-04-30T13:47:43.636Z,100131.84
2023-04-30T13:50:11.101Z,100132.80
2023-04-30T13:52:40.085Z,100134.50
2023-04-30T13:55:08.356Z,100132.88
2023-04-30T13:57:35.343Z,100132.86
2023-04-30T14:00:02.605Z,100131.88
2023-04-30T14:02:35.152Z,100126.67
2023-04-30T14:05:06.708Z,100129.01
2023-04-30T14:07:34.796Z,100125.77
2023-04-30T14:10:02.533Z,100125.40
2023-04-30T14:12:30.787Z,100128.75
2023-04-30T14:14:58.528Z,100129.10
2023-04-30T14:17:27.128Z,100127.81
2023-04-30T14:19:55.051Z,100128.71
2023-04-30T14:22:23.033Z,100126.63
2023-04-30T14:24:52.462Z,100130.30
2023-04-30T14:27:19.474Z,100136.58
2023-04-30T14:29:46.570Z,100134.15
2023-04-30T14:32:14.289Z,100132.85
2023-04-30T14:34:41.777Z,100129.64
2023-04-30T14:37:08.975Z,100129.89
2023-04-30T14:39:35.918Z,100128.72
2023-04-30T14:42:03.663Z,100132.80
2023-04-30T14:44:31.455Z,100127.33
2023-04-30T14:46:58.433Z,100131.79
2023-04-30T14:49:26.344Z,100135.30
2023-04-30T14:51:54.712Z,100132.81
2023-04-30T14:54:22.156Z,100132.88
2023-04-30T14:56:49.303Z,100133.57
2023-04-30T14:59:16.344Z,100131.21
2023-04-30T15:01:43.381Z,100136.00
2023-04-30T15:04:10.626Z,100136.35
2023-04-30T15:06:40.573Z,100134.39
2023-04-30T15:09:07.656Z,100135.30
2023-04-30T15:11:34.687Z,100137.77
2023-04-30T15:14:01.866Z,100138.72
2023-04-30T15:16:29.829Z,100136.46
2023-04-30T15:18:57.045Z,100140.59
2023-04-30T15:21:24.147Z,100142.85
2023-04-30T15:23:51.142Z,100140.63
2023-04-30T15:26:20.706Z,100141.56
2023-04-30T15:28:48.059Z,100146.70
2023-04-30T15:31:17.457Z,100144.69
2023-04-30T15:33:44.482Z,100149.21
2023-04-30T15:36:11.821Z,100148.27
2023-04-30T15:38:39.480Z,100147.11
2023-04-30T15:41:07.344Z,100143.95
2023-04-30T15:43:34.910Z,100146.16
2023-04-30T15:46:02.003Z,100147.02
2023-04-30T15:48:29.039Z,100146.77
2023-04-30T15:50:57.030Z,100142.66
2023-04-30T15:53:24.180Z,100139.67
2023-04-30T15:55:51.205Z,100140.02
2023-04-30T15:58:18.278Z,100142.71
2023-04-30T16:00:45.457Z,100140.83
2023-04-30T16:03:12.483Z,100141.61
2023-04-30T16:05:40.612Z,100144.12
2023-04-30T16:08:08.042Z,100146.95
2023-04-30T16:10:35.012Z,100146.33
2023-04-30T16:13:01.999Z,100143.75
2023-04-30T16:15:30.428Z,100145.03
2023-04-30T16:17:57.539Z,100145.91
2023-04-30T16:20:24.661Z,100144.59
2023-04-30T16:22:52.831Z,100147.88
2023-04-30T16:25:20.893Z,100145.43
2023-04-30T16:27:48.102Z,100150.44
2023-04-30T16:30:15.149Z,100153.49
2023-04-30T16:32:42.187Z,100155.70
2023-04-30T16:35:09.609Z,100156.22
2023-04-30T16:37:36.656Z,100153.02
2023-04-30T16:40:03.882Z,100152.78
2023-04-30T16:42:31.506Z,100149.47
2023-04-30T16:44:59.439Z,100151.36
2023-04-30T16:47:27.608Z,100150.33
2023-04-30T16:49:58.909Z,100153.16
2023-04-30T16:52:25.961Z,100154.32
2023-04-30T16:54:53.010Z,100157.90
2023-04-30T16:57:20.279Z,100159.51
2023-04-30T16:59:47.478Z,100165.07
2023-04-30T17:02:14.464Z,100162.95
2023-04-30T17:04:41.531Z,100166.58
2023-04-30T17:07:08.740Z,100166.86
2023-04-30T17:09:37.548Z,100168.13
2023-04-30T17:12:05.625Z,100168.05
2023-04-30T17:14:32.710Z,100166.55
2023-04-30T17:16:59.716Z,100168.16
2023-04-30T17:19:26.800Z,100167.59
2023-04-30T17:21:53.967Z,100169.60
2023-04-30T17:24:21.195Z,100169.16
2023-04-30T17:26:49.315Z,100171.09
2023-04-30T17:29:16.788Z,100174.48
2023-04-30T17:31:44.232Z,100174.30
2023-04-30T17:34:12.514Z,100174.88
2023-04-30T17:36:39.508Z,100177.02
2023-04-30T17:39:06.597Z,100179.81
2023-04-30T17:41:33.673Z,100180.52
2023-04-30T17:44:00.973Z,100180.98
2023-04-30T17:46:29.048Z,100181.86
2023-04-30T17:48:56.068Z,100184.00
2023-04-30T17:51:23.057Z,100186.41
2023-04-30T17:53:50.367Z,100186.32
2023-04-30T17:56:17.796Z,100189.53
2023-04-30T17:58:46.000Z,100188.55
2023-04-30T18:01:13.468Z,100191.36
2023-04-30T18:03:40.651Z,100184.05
2023-04-30T18:06:07.751Z,100183.02
2023-04-30T18:08:35.280Z,100185.69
2023-04-30T18:11:05.130Z,100186.08
2023-04-30T18:13:32.879Z,100186.02
2023-04-30T18:16:00.062Z,100188.48
2023-04-30T18:18:29.064Z,100191.29
2023-04-30T18:20:56.228Z,100190.73
2023-04-30T18:23:23.449Z,100193.42
2023-04-30T18:25:50.484Z,100189.48
2023-04-30T18:28:17.560Z,100192.81
2023-04-30T18:30:45.244Z,100191.14
2023-04-30T18:33:12.746Z,100190.45
2023-04-30T18:35:39.728Z,100189.95
2023-04-30T18:38:08.365Z,100193.70
2023-04-30T18:40:35.419Z,100189.85
2023-04-30T18:43:02.420Z,100188.75
2023-04-30T18:45:29.601Z,100188.13
2023-04-30T18:47:56.932Z,100184.45
2023-04-30T18:50:25.467Z,100181.09
2023-04-30T18:52:52.512Z,100180.95
2023-04-30T18:55:19.559Z,100178.64
2023-04-30T18:57:46.550Z,100180.70
2023-04-30T19:00:17.068Z,100181.23
2023-04-30T19:02:44.353Z,100178.36
2023-04-30T19:05:11.564Z,100178.64
2023-04-30T19:07:39.984Z,100176.02
2023-04-30T19:10:07.349Z,100177.63
2023-04-30T19:12:34.413Z,100179.35
2023-04-30T19:15:01.476Z,100181.78
2023-04-30T19:17:30.665Z,100184.09
2023-04-30T19:19:59.628Z,100182.31
2023-04-30T19:22:26.590Z,100182.81
2023-04-30T19:24:56.079Z,100182.91
2023-04-30T19:27:23.188Z,100181.65
2023-04-30T19:29:50.139Z,100180.42
2023-04-30T19:32:17.405Z,100180.13
2023-04-30T19:34:44.583Z,100187.39
2023-04-30T19:37:11.789Z,100185.45
2023-04-30T19:39:40.179Z,100184.45
2023-04-30T19:42:10.234Z,100184.58
2023-04-30T19:44:37.297Z,100184.66
2023-04-30T19:47:05.153Z,100182.10
2023-04-30T19:49:34.196Z,100181.30
2023-04-30T19:52:01.826Z,100179.04
2023-04-30T19:54:28.775Z,100185.92
2023-04-30T19:56:55.887Z,100193.58
2023-04-30T19:59:23.000Z,100188.31
2023-04-30T20:01:50.455Z,100189.36
2023-04-30T20:04:17.463Z,100193.55
2023-04-30T20:06:45.088Z,100191.75
2023-04-30T20:09:12.571Z,100189.95
2023-04-30T20:11:39.569Z,100194.77
2023-04-30T20:14:06.605Z,100190.35
2023-04-30T20:16:34.128Z,100193.35
2023-04-30T20:19:01.262Z,100195.19
2023-04-30T20:21:29.221Z,100192.09
2023-04-30T20:23:56.412Z,100197.42
2023-04-30T20:26:25.916Z,100201.20
2023-04-30T20:28:53.568Z,100200.08
2023-04-30T20:31:21.520Z,100200.34
2023-04-30T20:33:48.691Z,100197.35
2023-04-30T20:36:16.885Z,100199.98
2023-04-30T20:38:43.948Z,100201.30
2023-04-30T20:41:10.960Z,100203.92
2023-04-30T20:43:38.376Z,100202.59
2023-04-30T20:46:06.467Z,100199.55
2023-04-30T20:48:33.496Z,100201.60
2023-04-30T20:51:00.627Z,100201.14
2023-04-30T20:53:27.595Z,100202.16
2023-04-30T20:55:59.930Z,100204.91
2023-04-30T20:58:30.566Z,100206.13
2023-04-30T21:00:57.612Z,100205.41
2023-04-30T21:03:24.961Z,100206.45
2023-04-30T21:05:52.024Z,100208.05
2023-04-30T21:08:18.974Z,100208.06
2023-04-30T21:10:46.056Z,100212.58
2023-04-30T21:13:15.074Z,100212.62
2023-04-30T21:15:43.197Z,100212.70
2023-04-30T21:18:10.280Z,100212.47
2023-04-30T21:20:37.878Z,100212.20
2023-04-30T21:23:04.881Z,100212.05
2023-04-30T21:25:31.850Z,100214.66
2023-04-30T21:27:58.914Z,100213.14
2023-04-30T21:30:26.527Z,100217.71
2023-04-30T21:32:58.704Z,100218.52
2023-04-30T21:35:27.764Z,100219.09
2023-04-30T21:37:55.550Z,100220.09
2023-04-30T21:40:22.550Z,100221.73
2023-04-30T21:42:49.970Z,100224.66
2023-04-30T21:45:17.024Z,100222.20
2023-04-30T21:47:44.875Z,100228.42
2023-04-30T21:50:12.391Z,100229.46
2023-04-30T21:52:39.478Z,100231.39
2023-04-30T21:55:07.877Z,100232.23
2023-04-30T21:57:34.831Z,100231.14
2023-04-30T22:00:01.942Z,100232.52
2023-04-30T22:02:29.845Z,100235.81
2023-04-30T22:04:57.260Z,100230.48
2023-04-30T22:07:24.635Z,100232.05
2023-04-30T22:09:54.637Z,100230.17
2023-04-30T22:12:25.090Z,100229.84
2023-04-30T22:14:55.302Z,100229.06
2023-04-30T22:17:22.825Z,100229.08
2023-04-30T22:19:49.895Z,100223.65
2023-04-30T22:22:16.865Z,100219.74
2023-04-30T22:24:43.813Z,100225.86
2023-04-30T22:27:10.721Z,100224.94
2023-04-30T22:29:37.718Z,100230.69
2023-04-30T22:32:06.434Z,100231.64
2023-04-30T22:34:38.882Z,100234.27
2023-04-30T22:37:06.202Z,100237.03
2023-04-30T22:39:33.182Z,100231.98
2023-04-30T22:42:00.138Z,100233.53
2023-04-30T22:44:27.053Z,100231.45
2023-04-30T22:46:56.756Z,100230.91
2023-04-30T22:49:31.759Z,100231.67
2023-04-30T22:51:59.796Z,100230.16
2023-04-30T22:54:26.831Z,100232.95
2023-04-30T22:56:53.825Z,100239.05
2023-04-30T22:59:20.753Z,100241.17
2023-04-30T23:01:47.739Z,100250.77
2023-04-30T23:04:14.730Z,100255.96
2023-04-30T23:06:43.118Z,100255.23
2023-04-30T23:09:10.330Z,100255.02
2023-04-30T23:11:37.322Z,100255.02
2023-04-30T23:14:04.875Z,100256.16
2023-04-30T23:16:31.896Z,100256.39
2023-04-30T23:18:59.116Z,100256.02
2023-04-30T23:21:26.899Z,100256.83
2023-04-30T23:23:53.937Z,100248.71
2023-04-30T23:26:21.385Z,100247.21
2023-04-30T23:28:48.562Z,100241.45
2023-04-30T23:31:15.636Z,100243.83
2023-04-30T23:33:42.588Z,100246.81
2023-04-30T23:36:09.624Z,100247.39
2023-04-30T23:38:36.590Z,100249.42
2023-04-30T23:41:03.577Z,100249.29
2023-04-30T23:43:31.640Z,100247.77
2023-04-30T23:45:59.504Z,100249.38
2023-04-30T23:48:26.510Z,100249.29
2023-04-30T23:51:04.418Z,100252.67
2023-04-30T23:53:31.499Z,100253.41
2023-04-30T23:55:58.497Z,100253.67
2023-04-30T23:58:25.889Z,100253.92
